.
WxDataArchive / Data Records for 2013-05-08
2013-05-07 May 2013 2013-05-09

Data Records for Wednesday, 08 May 2013

Time	Temp	Chill	HIndex	Humid	Dewpt	 Wind 	HiWind	WindDir	Rain 	Barom 
-----	----	-----	------	-----	-----	------	------	-------	-----	----- 
00:00	60.1	60.1	60.1	73	51.4	0	0	---	0.00	29.986 
00:05	59.8	59.8	59.8	73	51.1	0	0	---	0.00	29.986 
00:10	59.6	59.6	59.6	74	51.3	0	0	---	0.00	29.986 
00:15	59.3	59.3	59.3	75	51.4	0	0	---	0.00	29.983 
00:20	59.3	59.3	59.3	75	51.4	0	0	---	0.00	29.983 
00:25	59.2	59.2	59.2	76	51.6	0	0	---	0.00	29.983 
00:30	58.9	58.9	58.9	76	51.3	0	0	---	0.00	29.982 
00:35	58.7	58.7	58.7	76	51.2	0	0	---	0.00	29.982 
00:40	58.4	58.4	58.4	76	50.9	0	0	---	0.00	29.982 
00:45	58.3	58.3	58.3	77	51.1	0	0	---	0.00	29.983 
00:50	58.0	58.0	58.0	78	51.2	0	0	---	0.00	29.983 
00:55	57.6	57.6	57.6	78	50.8	0	0	---	0.00	29.983 
01:00	57.5	57.5	57.5	79	51.0	0	0	---	0.00	29.983 
01:05	57.2	57.2	57.2	80	51.1	0	0	---	0.00	29.983 
01:10	57.0	57.0	57.0	81	51.2	0	0	---	0.00	29.983 
01:15	56.9	56.9	56.9	81	51.1	0	0	---	0.00	29.980 
01:20	56.7	56.7	56.7	82	51.3	0	0	---	0.00	29.980 
01:25	56.5	56.5	56.5	82	51.1	0	0	---	0.00	29.980 
01:30	56.2	56.2	56.2	83	51.1	0	0	---	0.00	29.979 
01:35	56.0	56.0	56.0	83	50.9	0	0	---	0.00	29.979 
01:40	55.7	55.7	55.7	84	50.9	0	0	---	0.00	29.979 
01:45	55.6	55.6	55.6	84	50.8	0	0	---	0.00	29.970 
01:50	55.3	55.3	55.3	85	50.9	0	0	---	0.00	29.970 
01:55	55.1	55.1	55.1	85	50.7	0	0	---	0.00	29.970 
02:00	55.0	55.0	55.0	86	50.9	0	0	---	0.00	29.966 
02:05	54.8	54.8	54.8	86	50.7	0	0	---	0.00	29.966 
02:10	54.7	54.7	54.7	86	50.6	0	0	---	0.00	29.966 
02:15	54.7	54.7	54.7	87	50.9	0	0	---	0.00	29.967 
02:20	54.5	54.5	54.5	87	50.7	0	0	---	0.00	29.967 
02:25	54.5	54.5	54.5	88	51.0	0	0	---	0.00	29.967 
02:30	54.4	54.4	54.4	88	50.9	0	0	---	0.00	29.965 
02:35	54.2	54.2	54.2	88	50.7	0	0	---	0.00	29.965 
02:40	54.1	54.1	54.1	88	50.6	0	0	---	0.00	29.965 
02:45	53.9	53.9	53.9	88	50.4	0	0	---	0.00	29.963 
02:50	53.8	53.8	53.8	88	50.3	0	0	---	0.00	29.963 
02:55	53.8	53.8	53.8	88	50.3	0	0	---	0.00	29.963 
03:00	53.8	53.8	53.8	88	50.3	0	0	---	0.00	29.961 
03:05	53.8	53.8	53.8	89	50.6	0	0	---	0.00	29.961 
03:10	53.8	53.8	53.8	89	50.6	0	0	---	0.00	29.961 
03:15	53.8	53.8	53.8	89	50.6	0	0	---	0.00	29.959 
03:20	53.6	53.6	53.6	89	50.4	0	0	---	0.00	29.959 
03:25	53.5	53.5	53.5	89	50.3	0	0	---	0.00	29.959 
03:30	53.5	53.5	53.5	89	50.3	0	0	---	0.00	29.962 
03:35	53.2	53.2	53.2	89	50.0	0	0	---	0.00	29.962 
03:40	53.2	53.2	53.2	89	50.0	0	0	---	0.00	29.962 
03:45	53.2	53.2	53.2	90	50.3	0	0	---	0.00	29.960 
03:50	53.3	53.3	53.3	90	50.4	0	0	---	0.00	29.960 
03:55	53.3	53.3	53.3	90	50.4	0	0	---	0.00	29.960 
04:00	53.5	53.5	53.5	90	50.6	0	0	---	0.00	29.960 
04:05	53.5	53.5	53.5	90	50.6	0	0	---	0.00	29.960 
04:10	53.6	53.6	53.6	90	50.7	0	0	---	0.00	29.960 
04:15	53.6	53.6	53.6	90	50.7	0	0	---	0.00	29.959 
04:20	53.6	53.6	53.6	90	50.7	0	0	---	0.00	29.959 
04:25	53.8	53.8	53.8	90	50.9	0	1	90	0.00	29.959 
04:30	53.9	53.9	53.9	90	51.0	0	0	---	0.00	29.964 
04:35	53.9	53.9	53.9	90	51.0	0	0	---	0.00	29.964 
04:40	53.9	53.9	53.9	90	51.0	0	0	---	0.00	29.964 
04:45	53.8	53.8	53.8	90	50.9	0	0	---	0.00	29.965 
04:50	53.8	53.8	53.8	90	50.9	0	0	---	0.00	29.965 
04:55	53.6	53.6	53.6	90	50.7	0	0	---	0.00	29.965 
05:00	53.6	53.6	53.6	90	50.7	0	0	---	0.00	29.962 
05:05	53.6	53.6	53.6	90	50.7	0	0	---	0.00	29.962 
05:10	53.6	53.6	53.6	90	50.7	0	0	---	0.00	29.962 
05:15	53.6	53.6	53.6	89	50.4	0	0	---	0.00	29.959 
05:20	53.6	53.6	53.6	89	50.4	0	0	---	0.00	29.959 
05:25	53.5	53.5	53.5	89	50.3	0	0	---	0.00	29.959 
05:30	53.5	53.5	53.5	89	50.3	0	0	---	0.00	29.964 
05:35	53.2	53.2	53.2	88	49.7	0	0	---	0.00	29.964 
05:40	53.1	53.1	53.1	88	49.6	0	0	---	0.00	29.964 
05:45	52.9	52.9	52.9	89	49.7	0	0	---	0.00	29.962 
05:50	52.8	52.8	52.8	89	49.6	0	0	---	0.00	29.962 
05:55	52.8	52.8	52.8	89	49.6	0	0	---	0.00	29.962 
06:00	52.6	52.6	52.6	89	49.4	0	0	---	0.00	29.966 
06:05	52.6	52.6	52.6	89	49.4	0	0	---	0.00	29.966 
06:10	52.5	52.5	52.5	89	49.4	0	0	---	0.00	29.966 
06:15	52.3	52.3	52.3	89	49.2	0	0	---	0.00	29.968 
06:20	52.2	52.2	52.2	89	49.1	0	0	---	0.00	29.968 
06:25	52.2	52.2	52.2	89	49.1	0	0	---	0.00	29.968 
06:30	52.0	52.0	52.0	89	48.9	0	0	---	0.00	29.970 
06:35	52.0	52.0	52.0	90	49.2	0	0	---	0.00	29.970 
06:40	52.0	52.0	52.0	90	49.2	0	0	---	0.00	29.970 
06:45	51.9	51.9	51.9	90	49.1	0	0	---	0.00	29.972 
06:50	51.9	51.9	51.9	90	49.1	0	0	---	0.00	29.972 
06:55	51.9	51.9	51.9	90	49.1	0	0	---	0.00	29.972 
07:00	52.0	52.0	52.0	90	49.2	0	0	---	0.00	29.978 
07:05	52.2	52.2	52.2	91	49.7	0	0	---	0.00	29.978 
07:10	52.5	52.5	52.5	91	49.9	0	0	---	0.00	29.978 
07:15	52.6	52.6	52.6	91	50.0	0	0	---	0.00	29.982 
07:20	52.8	52.8	52.8	91	50.2	0	0	---	0.00	29.982 
07:25	53.2	53.2	53.2	91	50.6	0	0	---	0.00	29.982 
07:30	53.6	53.6	53.6	91	51.0	0	0	---	0.00	29.982 
07:35	54.1	54.1	54.1	90	51.2	0	0	---	0.00	29.982 
07:40	54.5	54.5	54.5	89	51.3	0	0	---	0.00	29.982 
07:45	55.1	55.1	55.1	88	51.6	0	1	90	0.00	29.984 
07:50	55.7	55.7	55.7	87	51.9	0	2	90	0.00	29.984 
07:55	56.3	56.3	56.3	85	51.8	0	1	90	0.00	29.984 
08:00	56.7	56.7	56.7	83	51.6	0	1	90	0.00	29.985 
08:05	57.5	57.5	57.5	81	51.7	0	1	90	0.00	29.985 
08:10	58.3	58.3	58.3	80	52.2	0	1	68	0.00	29.985 
08:15	59.3	59.3	59.3	75	51.4	0	1	68	0.00	29.986 
08:20	60.5	60.5	60.5	73	51.8	0	1	68	0.00	29.986 
08:25	61.5	61.5	61.5	69	51.2	0	2	68	0.00	29.986 
08:30	62.3	62.3	62.3	66	50.8	0	1	68	0.00	29.983 
08:35	62.9	62.9	62.9	63	50.1	0	0	---	0.00	29.983 
08:40	63.5	63.5	63.5	64	51.1	0	1	68	0.00	29.983 
08:45	64.2	64.2	64.2	60	50.0	0	1	68	0.00	29.983 
08:50	64.8	64.8	64.8	58	49.7	0	1	68	0.00	29.983 
08:55	65.3	65.3	65.3	58	50.1	0	1	68	0.00	29.983 
09:00	65.5	65.5	65.5	56	49.4	0	2	68	0.00	29.987 
09:05	65.8	65.8	65.8	54	48.7	1	3	68	0.00	29.987 
09:10	66.3	66.3	66.3	55	49.6	0	3	270	0.00	29.987 
09:15	66.9	66.9	66.9	55	50.2	0	1	270	0.00	29.993 
09:20	67.6	67.6	67.6	53	49.9	0	2	270	0.00	29.993 
09:25	68.3	68.3	68.3	51	49.5	0	2	248	0.00	29.993 
09:30	68.6	68.6	68.6	51	49.7	0	3	248	0.00	29.994 
09:35	68.4	68.4	68.4	50	49.0	0	2	248	0.00	29.994 
09:40	68.4	68.4	68.4	50	49.0	0	2	248	0.00	29.994 
09:45	68.6	68.6	68.6	51	49.7	1	2	248	0.00	29.994 
09:50	69.1	69.1	69.1	52	50.7	0	2	248	0.00	29.994 
09:55	69.8	69.8	69.8	51	50.8	0	1	248	0.00	29.994 
10:00	70.3	70.3	70.3	50	50.8	0	1	248	0.00	29.992 
10:05	71.1	71.1	71.1	50	51.5	0	1	248	0.00	29.992 
10:10	71.1	71.1	71.1	49	51.0	0	2	248	0.00	29.992 
10:15	71.5	71.5	71.5	51	52.4	0	1	248	0.00	29.987 
10:20	71.6	71.6	71.6	47	50.3	1	4	248	0.00	29.987 
10:25	72.0	72.0	72.0	45	49.5	0	2	112	0.00	29.987 
10:30	72.1	72.1	72.1	45	49.6	0	1	112	0.00	29.988 
10:35	72.1	72.1	72.1	46	50.2	1	4	112	0.00	29.988 
10:40	72.1	72.1	72.1	43	48.4	1	3	112	0.00	29.988 
10:45	72.3	72.3	72.3	47	50.9	1	3	112	0.00	29.991 
10:50	72.7	72.7	72.7	46	50.7	0	2	112	0.00	29.991 
10:55	73.2	73.2	73.2	46	51.2	0	2	112	0.00	29.991 
11:00	73.3	73.3	73.3	45	50.7	0	2	112	0.00	29.989 
11:05	73.7	73.7	73.7	46	51.6	0	1	112	0.00	29.989 
11:10	74.4	74.4	74.4	46	52.3	1	3	112	0.00	29.989 
11:15	74.2	74.2	74.2	44	50.9	1	4	22	0.00	29.989 
11:20	74.4	74.4	74.4	45	51.7	1	3	90	0.00	29.989 
11:25	74.6	74.6	74.6	43	50.6	0	2	90	0.00	29.989 
11:30	74.7	74.7	74.7	45	51.9	1	4	112	0.00	29.990 
11:35	74.9	74.9	74.9	43	50.9	1	3	0	0.00	29.990 
11:40	74.7	74.7	74.7	43	50.7	0	3	0	0.00	29.990 
11:45	75.1	75.1	77.6	42	50.4	0	1	0	0.00	29.987 
11:50	75.8	75.8	77.9	46	53.5	0	3	68	0.00	29.987 
11:55	76.0	76.0	77.8	39	49.2	1	3	90	0.00	29.987 
12:00	76.0	76.0	77.9	43	51.9	1	4	90	0.00	29.987 
12:05	76.3	76.3	78.0	42	51.5	1	4	90	0.00	29.987 
12:10	76.1	76.1	77.9	41	50.7	1	2	45	0.00	29.987 
12:15	76.1	76.1	77.9	42	51.3	1	4	112	0.00	29.986 
12:20	76.5	76.5	78.1	42	51.7	1	6	112	0.00	29.986 
12:25	76.8	76.8	78.0	38	49.2	1	3	90	0.00	29.986 
12:30	77.4	77.4	78.5	41	51.8	1	3	112	0.00	29.981 
12:35	77.0	77.0	78.2	39	50.1	1	3	0	0.00	29.981 
12:40	77.0	77.0	78.4	43	52.8	1	4	112	0.00	29.981 
12:45	77.0	77.0	78.4	43	52.8	0	3	315	0.00	29.977 
12:50	77.2	77.2	78.4	41	51.7	1	3	315	0.00	29.977 
12:55	77.0	77.0	78.2	40	50.8	0	2	22	0.00	29.977 
13:00	77.2	77.2	78.3	39	50.3	0	2	22	0.00	29.974 
13:05	77.9	77.9	78.6	38	50.2	1	3	22	0.00	29.974 
13:10	78.3	78.3	78.7	37	49.9	1	3	22	0.00	29.974 
13:15	77.6	77.6	78.4	37	49.2	0	3	248	0.00	29.970 
13:20	77.9	77.9	78.8	42	52.9	0	2	248	0.00	29.970 
13:25	78.1	78.1	78.5	36	48.9	1	3	112	0.00	29.970 
13:30	77.4	77.4	78.1	35	47.6	0	1	90	0.00	29.966 
13:35	76.8	76.8	78.0	38	49.2	0	2	90	0.00	29.966 
13:40	76.8	76.8	78.2	42	51.9	0	3	90	0.00	29.966 
13:45	77.2	77.2	78.1	36	48.2	1	6	90	0.00	29.963 
13:50	76.8	76.8	78.1	39	49.9	0	2	90	0.00	29.963 
13:55	76.3	76.3	78.0	41	50.8	0	2	90	0.00	29.963 
14:00	76.7	76.7	78.0	37	48.4	1	3	315	0.00	29.963 
14:05	76.8	76.8	78.0	38	49.2	1	3	292	0.00	29.963 
14:10	76.8	76.8	77.9	35	47.1	0	1	292	0.00	29.963 
14:15	76.8	76.8	77.9	36	47.8	1	4	292	0.00	29.961 
14:20	76.7	76.7	77.9	36	47.7	0	4	135	0.00	29.961 
14:25	76.5	76.5	78.0	40	50.4	1	3	135	0.00	29.961 
14:30	75.8	75.8	77.7	38	48.4	0	2	315	0.00	29.959 
14:35	75.3	75.3	77.5	39	48.6	1	3	315	0.00	29.959 
14:40	75.1	75.1	77.5	39	48.4	0	2	315	0.00	29.959 
14:45	74.9	74.9	74.9	39	48.3	0	2	22	0.00	29.958 
14:50	74.9	74.9	74.9	39	48.3	0	2	292	0.00	29.958 
14:55	74.9	74.9	74.9	40	48.9	0	1	292	0.00	29.958 
15:00	75.1	75.1	77.5	39	48.4	0	1	315	0.00	29.956 
15:05	75.3	75.3	77.5	38	47.9	0	1	315	0.00	29.956 
15:10	75.4	75.4	77.6	39	48.7	0	1	315	0.00	29.956 
15:15	75.6	75.6	77.6	38	48.2	0	1	315	0.00	29.953 
15:20	75.8	75.8	77.7	39	49.1	0	1	315	0.00	29.953 
15:25	76.0	76.0	77.7	37	47.8	1	3	315	0.00	29.953 
15:30	76.0	76.0	77.6	36	47.1	1	2	315	0.00	29.950 
15:35	76.0	76.0	77.6	36	47.1	1	3	315	0.00	29.950 
15:40	76.0	76.0	77.6	35	46.4	1	4	315	0.00	29.950 
15:45	76.1	76.1	77.7	36	47.2	1	3	292	0.00	29.947 
15:50	76.3	76.3	77.8	38	48.8	1	3	292	0.00	29.947 
15:55	76.7	76.7	77.9	35	47.0	1	3	292	0.00	29.947 
16:00	76.8	76.8	77.9	36	47.8	1	3	292	0.00	29.946 
16:05	77.2	77.2	78.1	35	47.4	1	3	0	0.00	29.946 
16:10	76.7	76.7	77.8	34	46.2	1	3	338	0.00	29.946 
16:15	76.1	76.1	77.6	35	46.4	1	2	292	0.00	29.944 
16:20	75.8	75.8	77.6	37	47.7	1	4	292	0.00	29.944 
16:25	75.8	75.8	77.7	38	48.4	0	2	292	0.00	29.944 
16:30	76.0	76.0	77.6	36	47.1	1	3	292	0.00	29.940 
16:35	76.3	76.3	77.8	37	48.1	1	3	292	0.00	29.940 
16:40	76.3	76.3	77.7	36	47.4	1	2	292	0.00	29.940 
16:45	76.3	76.3	77.7	36	47.4	1	4	292	0.00	29.937 
16:50	76.1	76.1	77.6	35	46.4	1	3	270	0.00	29.937 
16:55	76.0	76.0	77.6	35	46.4	0	2	270	0.00	29.937 
17:00	76.0	76.0	77.7	37	47.8	1	2	270	0.00	29.934 
17:05	76.0	76.0	77.7	38	48.5	0	1	270	0.00	29.934 
17:10	75.8	75.8	77.6	36	46.9	1	4	270	0.00	29.934 
17:15	75.6	75.6	77.6	37	47.5	0	2	270	0.00	29.935 
17:20	75.4	75.4	77.5	37	47.3	0	1	270	0.00	29.935 
17:25	75.4	75.4	77.4	36	46.6	1	3	270	0.00	29.935 
17:30	76.0	76.0	77.7	37	47.8	1	3	270	0.00	29.934 
17:35	76.5	76.5	77.7	34	46.0	0	2	270	0.00	29.934 
17:40	76.7	76.7	77.8	34	46.2	1	3	270	0.00	29.934 
17:45	76.3	76.3	77.7	35	46.6	0	2	270	0.00	29.937 
17:50	76.7	76.7	77.8	34	46.2	1	4	270	0.00	29.937 
17:55	77.4	77.4	78.1	35	47.6	0	2	270	0.00	29.937 
18:00	77.6	77.6	78.2	34	47.0	1	3	270	0.00	29.935 
18:05	77.0	77.0	77.9	33	45.7	1	3	270	0.00	29.935 
18:10	76.7	76.7	77.7	33	45.4	1	4	270	0.00	29.935 
18:15	76.3	76.3	77.6	34	45.8	0	2	270	0.00	29.937 
18:20	76.0	76.0	77.6	35	46.4	1	2	292	0.00	29.937 
18:25	75.8	75.8	77.6	36	46.9	1	4	292	0.00	29.937 
18:30	74.9	74.9	74.9	41	49.6	3	6	270	0.00	29.948 
18:35	74.0	74.0	74.0	43	50.1	2	4	270	0.00	29.948 
18:40	73.2	73.2	73.2	43	49.3	3	5	270	0.00	29.948 
18:45	72.7	72.7	72.7	44	49.5	2	4	270	0.00	29.950 
18:50	72.3	72.3	72.3	43	48.5	1	3	315	0.00	29.950 
18:55	72.1	72.1	72.1	43	48.4	1	5	315	0.00	29.950 
19:00	71.8	71.8	71.8	44	48.7	1	2	338	0.00	29.950 
19:05	71.8	71.8	71.8	43	48.1	1	2	338	0.00	29.950 
19:10	71.6	71.6	71.6	43	47.9	1	2	338	0.00	29.950 
19:15	71.6	71.6	71.6	43	47.9	1	2	338	0.00	29.941 
19:20	71.6	71.6	71.6	43	47.9	0	2	338	0.00	29.941 
19:25	71.6	71.6	71.6	44	48.5	0	1	338	0.00	29.941 
19:30	71.5	71.5	71.5	43	47.8	1	2	338	0.00	29.939 
19:35	71.3	71.3	71.3	43	47.6	0	1	338	0.00	29.939 
19:40	71.1	71.1	71.1	45	48.7	0	1	338	0.00	29.939 
19:45	70.9	70.9	70.9	45	48.5	0	1	338	0.00	29.939 
19:50	70.8	70.8	70.8	44	47.8	0	1	338	0.00	29.939 
19:55	70.6	70.6	70.6	45	48.2	0	1	338	0.00	29.939 
20:00	70.6	70.6	70.6	45	48.2	0	0	---	0.00	29.939 
20:05	70.3	70.3	70.3	46	48.5	0	0	---	0.00	29.939 
20:10	70.1	70.1	70.1	46	48.3	0	0	---	0.00	29.939 
20:15	69.9	69.9	69.9	46	48.2	0	0	---	0.00	29.938 
20:20	69.6	69.6	69.6	47	48.5	0	0	---	0.00	29.938 
20:25	69.3	69.3	69.3	50	49.8	0	1	338	0.00	29.938 
20:30	69.1	69.1	69.1	50	49.7	0	1	338	0.00	29.946 
20:35	68.8	68.8	68.8	51	49.9	0	2	338	0.00	29.946 
20:40	68.6	68.6	68.6	52	50.3	0	1	338	0.00	29.946 
20:45	68.4	68.4	68.4	53	50.6	0	2	338	0.00	29.958 
20:50	68.4	68.4	68.4	55	51.6	1	3	338	0.00	29.958 
20:55	68.3	68.3	68.3	56	52.0	1	3	0	0.00	29.958 
21:00	68.1	68.1	68.1	58	52.8	1	4	0	0.00	29.962 
21:05	67.6	67.6	67.6	58	52.3	1	3	45	0.00	29.962 
21:10	67.3	67.3	67.3	59	52.5	1	3	45	0.00	29.962 
21:15	66.9	66.9	66.9	59	52.1	0	2	45	0.00	29.959 
21:20	66.8	66.8	66.8	59	52.0	1	3	45	0.00	29.959 
21:25	66.4	66.4	66.4	60	52.1	0	2	45	0.00	29.959 
21:30	66.3	66.3	66.3	61	52.4	0	1	45	0.00	29.959 
21:35	66.1	66.1	66.1	61	52.3	0	0	---	0.00	29.959 
21:40	65.8	65.8	65.8	62	52.4	0	0	---	0.00	29.959 
21:45	65.6	65.6	65.6	62	52.2	0	0	---	0.00	29.960 
21:50	65.5	65.5	65.5	63	52.6	0	0	---	0.00	29.960 
21:55	65.2	65.2	65.2	64	52.7	0	0	---	0.00	29.960 
22:00	64.8	64.8	64.8	64	52.3	0	0	---	0.00	29.963 
22:05	64.5	64.5	64.5	65	52.5	0	0	---	0.00	29.963 
22:10	64.2	64.2	64.2	66	52.6	0	0	---	0.00	29.963 
22:15	63.7	63.7	63.7	67	52.5	0	0	---	0.00	29.965 
22:20	63.4	63.4	63.4	67	52.2	0	0	---	0.00	29.965 
22:25	63.2	63.2	63.2	68	52.5	0	0	---	0.00	29.965 
22:30	63.2	63.2	63.2	69	52.9	0	0	---	0.00	29.970 
22:35	63.2	63.2	63.2	69	52.9	0	0	---	0.00	29.970 
22:40	63.2	63.2	63.2	69	52.9	0	0	---	0.00	29.970 
22:45	63.1	63.1	63.1	69	52.8	0	0	---	0.00	29.969 
22:50	62.9	62.9	62.9	69	52.6	0	0	---	0.00	29.969 
22:55	62.6	62.6	62.6	70	52.7	0	0	---	0.00	29.969 
23:00	62.4	62.4	62.4	71	52.9	0	0	---	0.00	29.965 
23:05	62.0	62.0	62.0	72	52.9	0	0	---	0.00	29.965 
23:10	61.6	61.6	61.6	73	52.9	0	0	---	0.00	29.965 
23:15	61.3	61.3	61.3	73	52.6	0	0	---	0.00	29.961 
23:20	61.2	61.2	61.2	74	52.8	0	0	---	0.00	29.961 
23:25	60.9	60.9	60.9	75	52.9	0	0	---	0.00	29.961 
23:30	60.5	60.5	60.5	75	52.5	0	0	---	0.00	29.959 
23:35	60.2	60.2	60.2	75	52.2	0	0	---	0.00	29.959 
23:40	60.1	60.1	60.1	76	52.5	0	0	---	0.00	29.959 
23:45	59.9	59.9	59.9	76	52.3	0	0	---	0.00	29.958 
23:50	59.6	59.6	59.6	77	52.4	0	0	---	0.00	29.958 
23:55	59.3	59.3	59.3	78	52.4	0	0	---	0.00	29.958 

CoCoRaHS
IN-AL-39
A2 Web Hosting
Creative Commons License
GoDaddy
search engine by freefind advanced

loaded 2018-11-12 19:28:28 • last modified 2010-11-18 10:43:29
Privacy PolicyDisclaimer
• wx.awcolley.com is powered by PmWiki v.2002016 •
• all content (unless otherwise noted) © 2018 A W Colley